HESH/SSH METAR and TAF weather

Enter ICAO airport designator
Station Type Date Time Source
HESH METAR 2019/08/19 07:00 UTC NOAA

HESH 190700Z 02006KT CAVOK 33/18 Q1008 NOSIG


Station Type Date Time Source
HESH Decoded METAR 2019/08/19 07:00 UTC NOAA

Station name not available
Aug 19, 2019 - 03:00 AM EDT / 2019.08.19 0700 UTC
Wind: from the NNE (020 degrees) at 7 MPH (6 KT):0
Visibility: greater than 7 mile(s):0
Temperature: 91 F (33 C)
Dew Point: 64 F (18 C)
Relative Humidity: 41%
Pressure (altimeter): 29.77 in. Hg (1008 hPa)
ob: HESH 190700Z 02006KT CAVOK 33/18 Q1008 NOSIG
cycle: 7

Station Type Date Time Source
HESH TAF 2019/08/19 06:30 UTC NOAA

TAF TAF HESH 190500Z 1906/2012 03015KT CAVOK

Example: see airport list